createdAt,value
2023-01-23T00:01:16.543Z,0.82
2023-01-23T00:06:15.486Z,0.83
2023-01-23T00:11:13.141Z,0.82
2023-01-23T00:16:15.557Z,0.80
2023-01-23T00:21:19.089Z,0.85
2023-01-23T00:26:18.581Z,0.92
2023-01-23T00:31:16.927Z,0.88
2023-01-23T00:36:15.457Z,0.86
2023-01-23T00:41:12.538Z,0.84
2023-01-23T00:46:08.954Z,0.94
2023-01-23T00:51:06.359Z,0.82
2023-01-23T00:56:02.799Z,0.77
2023-01-23T01:00:59.209Z,0.72
2023-01-23T01:05:56.031Z,0.90
2023-01-23T01:10:52.422Z,0.77
2023-01-23T01:15:49.744Z,0.78
2023-01-23T01:20:47.079Z,0.78
2023-01-23T01:25:43.518Z,0.81
2023-01-23T01:30:41.195Z,0.76
2023-01-23T01:35:40.845Z,0.84
2023-01-23T01:40:38.266Z,0.74
2023-01-23T01:45:59.903Z,0.89
2023-01-23T01:50:58.177Z,0.82
2023-01-23T01:55:55.534Z,0.80
2023-01-23T02:00:52.016Z,0.80
2023-01-23T02:05:50.196Z,0.83
2023-01-23T02:10:47.270Z,0.79
2023-01-23T02:15:43.666Z,0.80
2023-01-23T02:20:40.487Z,0.83
2023-01-23T02:25:42.964Z,0.82
2023-01-23T02:30:42.370Z,0.82
2023-01-23T02:35:39.385Z,0.80
2023-01-23T02:40:41.190Z,0.79
2023-01-23T02:45:38.918Z,0.76
2023-01-23T02:50:35.325Z,0.78
2023-01-23T02:55:33.777Z,0.80
2023-01-23T03:00:30.179Z,0.76
2023-01-23T03:05:26.868Z,0.81
2023-01-23T03:10:23.335Z,0.77
2023-01-23T03:15:19.682Z,0.81
2023-01-23T03:20:20.067Z,0.81
2023-01-23T03:25:17.253Z,0.83
2023-01-23T03:30:21.026Z,0.84
2023-01-23T03:35:19.819Z,0.83
2023-01-23T03:40:40.099Z,0.78
2023-01-23T03:45:36.518Z,0.74
2023-01-23T03:50:32.879Z,0.77
2023-01-23T03:55:29.268Z,0.65
2023-01-23T04:00:25.674Z,0.52
2023-01-23T04:05:22.037Z,0.45
2023-01-23T04:10:18.810Z,0.47
2023-01-23T04:15:15.463Z,0.42
2023-01-23T04:20:12.991Z,0.43
2023-01-23T04:25:10.129Z,0.44
2023-01-23T04:30:07.094Z,0.40
2023-01-23T04:35:03.848Z,0.29
2023-01-23T04:40:00.567Z,0.42
2023-01-23T04:44:56.920Z,0.46
2023-01-23T04:49:53.304Z,0.57
2023-01-23T04:54:49.723Z,0.58
2023-01-23T04:59:46.092Z,0.66
2023-01-23T05:04:42.472Z,0.67
2023-01-23T05:09:40.179Z,0.68
2023-01-23T05:14:36.618Z,0.77
2023-01-23T05:19:33.058Z,0.78
2023-01-23T05:24:29.496Z,0.84
2023-01-23T05:29:26.138Z,0.87
2023-01-23T05:34:22.556Z,0.88
2023-01-23T05:39:19.100Z,0.88
2023-01-23T05:44:15.542Z,0.85
2023-01-23T05:49:11.936Z,0.82
2023-01-23T05:54:10.184Z,0.70
2023-01-23T05:59:06.571Z,0.63
2023-01-23T06:04:02.929Z,0.61
2023-01-23T06:09:00.081Z,0.69
2023-01-23T06:13:56.432Z,0.77
2023-01-23T06:18:53.019Z,0.81
2023-01-23T06:23:49.365Z,0.90
2023-01-23T06:28:45.765Z,0.90
2023-01-23T06:33:42.337Z,0.90
2023-01-23T06:38:38.924Z,0.93
2023-01-23T06:43:35.274Z,0.97
2023-01-23T06:48:31.639Z,0.94
2023-01-23T06:53:28.084Z,1.00
2023-01-23T06:58:24.546Z,1.04
2023-01-23T07:03:21.053Z,1.02
2023-01-23T07:08:17.642Z,1.01
2023-01-23T07:13:13.985Z,1.00
2023-01-23T07:18:10.428Z,1.02
2023-01-23T07:23:06.809Z,1.03
2023-01-23T07:28:03.377Z,1.05
2023-01-23T07:33:00.040Z,1.07
2023-01-23T07:37:57.119Z,1.11
2023-01-23T07:42:53.457Z,1.07
2023-01-23T07:47:49.899Z,1.13
2023-01-23T07:52:46.238Z,1.04
2023-01-23T07:57:42.691Z,1.04
2023-01-23T08:02:39.422Z,1.10
2023-01-23T08:07:35.751Z,1.12
2023-01-23T08:12:32.073Z,1.14
2023-01-23T08:17:28.400Z,1.12
2023-01-23T08:22:24.854Z,1.11
2023-01-23T08:27:21.605Z,1.19
2023-01-23T08:32:18.033Z,1.21
2023-01-23T08:37:14.358Z,1.29
2023-01-23T08:42:10.736Z,1.36
2023-01-23T08:47:07.189Z,1.43
2023-01-23T08:52:05.830Z,1.36
2023-01-23T08:57:02.846Z,1.47
2023-01-23T09:01:59.213Z,1.43
2023-01-23T09:06:56.047Z,1.50
2023-01-23T09:11:53.817Z,1.56
2023-01-23T09:16:50.371Z,1.69
2023-01-23T09:21:46.832Z,1.77
2023-01-23T09:26:43.590Z,1.70
2023-01-23T09:31:39.999Z,1.66
2023-01-23T09:36:42.756Z,1.73
2023-01-23T09:41:40.860Z,1.82
2023-01-23T09:46:52.617Z,1.85
2023-01-23T09:52:02.086Z,1.90
2023-01-23T09:57:04.376Z,1.95
2023-01-23T10:02:00.880Z,2.00
2023-01-23T10:07:06.717Z,2.09
2023-01-23T10:12:22.287Z,2.01
2023-01-23T10:17:29.335Z,2.14
2023-01-23T10:22:41.611Z,2.22
2023-01-23T10:27:43.456Z,2.29
2023-01-23T10:32:49.683Z,2.25
2023-01-23T10:38:01.789Z,2.26
2023-01-23T10:43:02.515Z,2.35
2023-01-23T10:47:59.953Z,2.32
2023-01-23T10:53:07.206Z,2.35
2023-01-23T10:58:03.721Z,2.44
2023-01-23T11:03:26.411Z,2.55
2023-01-23T11:08:34.020Z,2.52
2023-01-23T11:13:30.844Z,2.39
2023-01-23T11:18:39.647Z,2.50
2023-01-23T11:23:35.952Z,2.45
2023-01-23T11:28:35.361Z,2.48
2023-01-23T11:33:53.638Z,2.47
2023-01-23T11:38:57.638Z,2.57
2023-01-23T11:43:54.186Z,2.71
2023-01-23T11:49:05.998Z,2.74
2023-01-23T11:54:26.178Z,2.66
2023-01-23T11:59:44.894Z,2.66
2023-01-23T12:04:47.179Z,2.62
2023-01-23T12:10:25.191Z,2.63
2023-01-23T12:15:30.578Z,2.72
2023-01-23T12:20:39.183Z,2.74
2023-01-23T12:25:36.972Z,2.74
2023-01-23T12:30:41.625Z,2.74
2023-01-23T12:36:06.042Z,2.65
2023-01-23T12:41:36.698Z,2.83
2023-01-23T12:46:56.090Z,2.98
2023-01-23T12:52:02.149Z,3.14
2023-01-23T12:57:00.504Z,2.98
2023-01-23T13:02:09.316Z,2.79
2023-01-23T13:07:32.349Z,2.56
2023-01-23T13:12:29.878Z,2.66
2023-01-23T13:17:44.114Z,2.61
2023-01-23T13:22:40.529Z,2.46
2023-01-23T13:27:47.331Z,2.43
2023-01-23T13:32:43.963Z,2.39
2023-01-23T13:37:40.340Z,2.36
2023-01-23T13:42:36.878Z,2.33
2023-01-23T14:20:24.667Z,2.08
2023-01-23T14:25:21.782Z,2.16
2023-01-23T14:30:23.843Z,2.15
2023-01-23T14:35:27.817Z,2.25
2023-01-23T14:40:28.349Z,2.20
2023-01-23T14:45:32.127Z,2.33
2023-01-23T14:50:30.455Z,2.27
2023-01-23T14:55:32.702Z,2.26
2023-01-23T15:00:30.319Z,2.17
2023-01-23T15:05:28.380Z,2.11
2023-01-23T15:10:27.945Z,2.07
2023-01-23T15:15:26.442Z,2.07
2023-01-23T15:20:32.128Z,2.04
2023-01-23T15:25:33.621Z,2.02
2023-01-23T15:30:29.949Z,2.01
2023-01-23T15:35:26.505Z,1.97
2023-01-23T15:40:27.862Z,1.92
2023-01-23T15:45:24.243Z,1.88
2023-01-23T15:50:20.783Z,1.88
2023-01-23T15:55:18.799Z,1.82
2023-01-23T16:00:26.511Z,1.79
2023-01-23T16:05:25.509Z,1.86
2023-01-23T16:10:23.587Z,1.79
2023-01-23T16:15:22.933Z,1.79
2023-01-23T16:20:22.329Z,1.81
2023-01-23T16:25:41.941Z,1.77
2023-01-23T16:30:39.676Z,1.81
2023-01-23T16:35:36.703Z,1.73
2023-01-23T16:40:33.750Z,1.68
2023-01-23T16:45:31.960Z,1.66
2023-01-23T16:50:36.810Z,1.61
2023-01-23T16:55:39.708Z,1.60
2023-01-23T17:00:36.334Z,1.57
2023-01-23T17:05:32.807Z,1.53
2023-01-23T17:10:41.239Z,1.54
2023-01-23T17:15:42.090Z,1.53
2023-01-23T17:20:39.885Z,1.51
2023-01-23T17:25:42.855Z,1.50
2023-01-23T17:30:50.865Z,1.45
2023-01-23T17:35:48.942Z,1.44
2023-01-23T17:40:45.667Z,1.38
2023-01-23T17:45:45.603Z,1.37
2023-01-23T17:50:47.120Z,1.40
2023-01-23T17:55:47.905Z,1.41
2023-01-23T18:00:48.696Z,1.37
2023-01-23T18:05:45.102Z,1.36
2023-01-23T18:10:44.945Z,1.41
2023-01-23T18:16:00.319Z,1.39
2023-01-23T18:20:57.955Z,1.33
2023-01-23T18:26:23.569Z,1.27
2023-01-23T18:31:31.382Z,1.26
2023-01-23T18:36:36.265Z,1.28
2023-01-23T18:41:33.129Z,1.28
2023-01-23T18:46:29.783Z,1.26
2023-01-23T18:51:37.845Z,1.25
2023-01-23T18:56:44.595Z,1.27
2023-01-23T19:01:58.750Z,1.26
2023-01-23T19:06:55.429Z,1.32
2023-01-23T19:12:20.428Z,1.16
2023-01-23T19:17:54.042Z,1.07
2023-01-23T19:23:11.973Z,1.00
2023-01-23T19:28:10.191Z,0.97
2023-01-23T19:33:06.522Z,0.73
2023-01-23T19:38:03.017Z,0.59
2023-01-23T19:43:13.729Z,0.48
2023-01-23T19:48:11.387Z,0.44
2023-01-23T19:53:07.836Z,0.55
2023-01-23T19:58:04.632Z,0.54
2023-01-23T20:03:00.932Z,0.57
2023-01-23T20:07:57.226Z,0.76
2023-01-23T20:12:55.182Z,0.84
2023-01-23T20:17:52.893Z,0.92
2023-01-23T20:22:49.226Z,0.93
2023-01-23T20:27:45.967Z,0.94
2023-01-23T20:32:42.628Z,1.01
2023-01-23T20:37:38.976Z,1.01
2023-01-23T20:42:35.402Z,0.99
2023-01-23T20:47:31.691Z,0.99
2023-01-23T20:52:47.302Z,1.05
2023-01-23T20:58:02.278Z,1.05
2023-01-23T21:02:58.693Z,1.00
2023-01-23T21:07:55.052Z,1.00
2023-01-23T21:12:51.429Z,1.02
2023-01-23T21:17:47.737Z,1.05
2023-01-23T21:22:44.090Z,0.98
2023-01-23T21:27:40.402Z,0.95
2023-01-23T21:32:36.809Z,0.97
2023-01-23T21:37:33.242Z,0.98
2023-01-23T21:42:29.946Z,1.04
2023-01-23T21:47:26.285Z,1.08
2023-01-23T21:52:22.589Z,1.06
2023-01-23T21:57:18.905Z,1.09
2023-01-23T22:02:15.186Z,1.08
2023-01-23T22:07:11.482Z,1.10
2023-01-23T22:12:07.807Z,1.14
2023-01-23T22:17:06.257Z,1.08
2023-01-23T22:22:02.604Z,1.10
2023-01-23T22:26:59.330Z,1.12
2023-01-23T22:31:55.761Z,1.11
2023-01-23T22:36:52.188Z,1.12
2023-01-23T22:41:50.276Z,1.13
2023-01-23T22:46:49.401Z,1.15
2023-01-23T22:51:45.820Z,1.08
2023-01-23T22:56:43.980Z,1.10
2023-01-23T23:01:40.337Z,1.12
2023-01-23T23:06:36.629Z,1.15
2023-01-23T23:11:33.117Z,1.14
2023-01-23T23:16:32.232Z,1.14
2023-01-23T23:21:36.080Z,1.16
2023-01-23T23:26:32.849Z,1.13
2023-01-23T23:31:29.469Z,1.11
2023-01-23T23:36:26.044Z,1.18
2023-01-23T23:41:22.672Z,1.10
2023-01-23T23:46:19.330Z,1.10
2023-01-23T23:51:18.726Z,1.12
2023-01-23T23:56:27.228Z,1.09
